createdAt,value
2022-08-12T00:01:02.417Z,6.23
2022-08-12T00:03:47.598Z,7.40
2022-08-12T00:06:34.202Z,6.83
2022-08-12T00:09:24.313Z,5.30
2022-08-12T00:12:13.072Z,8.40
2022-08-12T00:14:58.373Z,5.50
2022-08-12T00:17:43.249Z,8.47
2022-08-12T00:20:29.766Z,8.63
2022-08-12T00:23:16.253Z,5.50
2022-08-12T00:26:23.575Z,13.27
2022-08-12T00:29:08.973Z,7.20
2022-08-12T00:31:54.097Z,10.30
2022-08-12T00:34:39.162Z,4.77
2022-08-12T00:37:25.304Z,6.37
2022-08-12T00:40:13.455Z,7.47
2022-08-12T00:42:41.673Z,8.43
2022-08-12T00:45:09.849Z,7.10
2022-08-12T00:47:37.850Z,6.23
2022-08-12T00:50:05.732Z,7.70
2022-08-12T00:52:34.226Z,10.93
2022-08-12T00:55:03.259Z,5.50
2022-08-12T00:57:34.801Z,9.57
2022-08-12T01:00:05.451Z,6.40
2022-08-12T01:02:34.450Z,8.30
2022-08-12T01:05:22.592Z,8.30
2022-08-12T01:08:08.681Z,6.20
2022-08-12T01:10:56.210Z,5.73
2022-08-12T01:13:23.762Z,7.67
2022-08-12T01:15:52.905Z,7.50
2022-08-12T01:18:20.949Z,10.10
2022-08-12T01:20:47.357Z,6.13
2022-08-12T01:23:38.190Z,5.50
2022-08-12T01:26:07.254Z,12.00
2022-08-12T01:28:35.368Z,6.30
2022-08-12T01:31:05.116Z,16.30
2022-08-12T01:33:57.301Z,14.17
2022-08-12T01:36:25.837Z,8.87
2022-08-12T01:38:56.346Z,10.63
2022-08-12T01:41:25.822Z,6.53
2022-08-12T01:43:53.733Z,9.50
2022-08-12T01:46:39.239Z,9.80
2022-08-12T01:49:45.047Z,6.40
2022-08-12T01:52:24.452Z,6.63
2022-08-12T01:54:51.569Z,9.10
2022-08-12T01:57:58.263Z,4.17
2022-08-12T02:00:35.883Z,8.27
2022-08-12T02:03:52.998Z,7.37
2022-08-12T02:07:02.029Z,12.10
2022-08-12T02:10:09.048Z,6.00
2022-08-12T02:13:04.677Z,6.63
2022-08-12T02:15:45.737Z,8.60
2022-08-12T02:18:40.272Z,8.80
2022-08-12T02:21:33.152Z,6.20
2022-08-12T02:24:00.901Z,6.33
2022-08-12T02:26:30.210Z,8.73
2022-08-12T02:28:57.291Z,5.87
2022-08-12T02:31:27.103Z,8.10
2022-08-12T02:33:54.360Z,7.70
2022-08-12T02:36:20.990Z,4.73
2022-08-12T02:38:49.115Z,3.47
2022-08-12T02:41:19.821Z,3.97
2022-08-12T02:43:52.257Z,5.77
2022-08-12T02:46:25.468Z,5.53
2022-08-12T02:48:59.856Z,7.20
2022-08-12T02:51:33.490Z,6.80
2022-08-12T02:54:05.263Z,4.77
2022-08-12T02:56:34.565Z,5.93
2022-08-12T02:59:01.485Z,6.07
2022-08-12T03:01:34.462Z,6.90
2022-08-12T03:04:03.532Z,7.10
2022-08-12T03:06:38.695Z,5.37
2022-08-12T03:09:05.503Z,8.83
2022-08-12T03:11:44.667Z,9.10
2022-08-12T03:14:18.006Z,8.87
2022-08-12T03:16:50.447Z,4.27
2022-08-12T03:19:21.177Z,7.70
2022-08-12T03:21:55.297Z,10.27
2022-08-12T03:24:39.752Z,6.53
2022-08-12T03:27:09.671Z,8.30
2022-08-12T03:29:50.116Z,8.57
2022-08-12T03:32:36.024Z,8.63
2022-08-12T03:35:40.419Z,5.73
2022-08-12T03:38:12.396Z,7.60
2022-08-12T03:41:18.792Z,4.23
2022-08-12T03:44:26.473Z,7.37
2022-08-12T03:47:19.456Z,5.17
2022-08-12T03:50:04.808Z,6.20
2022-08-12T03:52:49.796Z,5.73
2022-08-12T03:55:35.468Z,11.47
2022-08-12T03:58:21.869Z,5.67
2022-08-12T04:00:48.976Z,11.77
2022-08-12T04:03:36.232Z,10.30
2022-08-12T04:06:02.953Z,7.23
2022-08-12T04:08:29.604Z,6.20
2022-08-12T04:11:15.184Z,8.50
2022-08-12T04:13:42.248Z,6.57
2022-08-12T04:16:10.748Z,7.17
2022-08-12T04:18:40.403Z,8.13
2022-08-12T04:21:10.224Z,11.10
2022-08-12T04:23:48.245Z,6.93
2022-08-12T04:26:15.364Z,6.60
2022-08-12T04:28:42.673Z,9.03
2022-08-12T04:31:09.522Z,15.83
2022-08-12T04:33:36.588Z,7.67
2022-08-12T04:36:08.621Z,10.47
2022-08-12T04:38:36.477Z,5.57
2022-08-12T04:41:04.259Z,8.20
2022-08-12T04:43:59.596Z,10.40
2022-08-12T04:46:22.226Z,6.77
2022-08-12T04:48:50.481Z,10.70
2022-08-12T04:51:18.056Z,7.40
2022-08-12T04:53:45.512Z,11.63
2022-08-12T04:56:12.135Z,7.40
2022-08-12T04:58:39.262Z,8.23
2022-08-12T05:01:06.385Z,8.70
2022-08-12T05:03:46.377Z,6.50
2022-08-12T05:06:17.006Z,6.87
2022-08-12T05:08:57.585Z,9.67
2022-08-12T05:11:25.267Z,9.47
2022-08-12T05:13:58.010Z,6.10
2022-08-12T05:16:31.175Z,4.80
2022-08-12T05:19:00.997Z,5.47
2022-08-12T05:21:27.847Z,9.80
2022-08-12T05:23:54.941Z,11.10
2022-08-12T05:26:22.469Z,8.90
2022-08-12T05:28:49.971Z,8.40
2022-08-12T05:31:42.343Z,11.67
2022-08-12T05:36:49.474Z,10.63
2022-08-12T05:39:16.198Z,6.37
2022-08-12T05:41:42.645Z,13.40
2022-08-12T05:44:13.455Z,5.20
2022-08-12T05:46:41.129Z,11.33
2022-08-12T05:49:09.231Z,9.10
2022-08-12T05:51:40.206Z,10.07
2022-08-12T05:54:07.520Z,9.53
2022-08-12T05:56:35.574Z,11.00
2022-08-12T05:59:05.260Z,7.87
2022-08-12T06:02:10.329Z,19.13
2022-08-12T06:04:18.493Z,7.43
2022-08-12T06:06:51.299Z,10.93
2022-08-12T06:09:17.773Z,9.83
2022-08-12T06:12:04.824Z,6.57
2022-08-12T06:14:36.166Z,11.67
2022-08-12T06:17:04.132Z,4.63
2022-08-12T06:20:26.593Z,10.40
2022-08-12T06:22:18.348Z,11.33
2022-08-12T06:24:44.851Z,12.80
2022-08-12T06:27:11.738Z,4.50
2022-08-12T06:30:10.072Z,8.60
2022-08-12T06:32:27.712Z,13.80
2022-08-12T06:35:25.314Z,7.97
2022-08-12T06:37:46.010Z,9.13
2022-08-12T06:40:41.182Z,6.83
2022-08-12T06:43:07.848Z,13.10
2022-08-12T06:45:45.804Z,8.43
2022-08-12T06:48:12.997Z,10.30
2022-08-12T06:50:40.351Z,10.98
2022-08-12T06:53:09.371Z,5.78
2022-08-12T06:55:36.361Z,9.43
2022-08-12T06:58:07.632Z,7.28
2022-08-12T07:00:37.195Z,5.40
2022-08-12T07:03:22.821Z,9.00
2022-08-12T07:05:50.905Z,11.32
2022-08-12T07:08:17.867Z,8.60
2022-08-12T07:10:53.549Z,7.35
2022-08-12T07:13:20.937Z,4.05
2022-08-12T07:15:47.621Z,6.25
2022-08-12T07:18:17.943Z,4.40
2022-08-12T07:20:53.396Z,4.75
2022-08-12T07:23:20.720Z,5.40
2022-08-12T07:25:47.610Z,9.45
2022-08-12T07:28:23.563Z,6.78
2022-08-12T07:30:52.787Z,5.55
2022-08-12T07:33:22.310Z,5.28
2022-08-12T07:35:49.916Z,5.53
2022-08-12T07:38:44.766Z,5.07
2022-08-12T07:41:27.905Z,4.85
2022-08-12T07:44:00.057Z,4.38
2022-08-12T07:46:38.918Z,6.80
2022-08-12T07:49:08.277Z,6.00
2022-08-12T07:51:35.445Z,4.65
2022-08-12T07:54:03.621Z,4.55
2022-08-12T07:56:34.649Z,6.72
2022-08-12T07:59:03.264Z,9.73
2022-08-12T08:01:30.349Z,8.02
2022-08-12T08:04:19.144Z,11.20
2022-08-12T08:06:47.408Z,3.70
2022-08-12T08:09:15.916Z,5.37
2022-08-12T08:12:01.269Z,5.57
2022-08-12T08:14:29.463Z,3.30
2022-08-12T08:17:00.794Z,6.18
2022-08-12T08:19:29.245Z,8.00
2022-08-12T08:21:57.457Z,8.55
2022-08-12T08:24:26.966Z,7.35
2022-08-12T08:26:56.535Z,4.65
2022-08-12T08:29:24.872Z,7.15
2022-08-12T08:31:54.664Z,5.80
2022-08-12T08:34:40.133Z,8.23
2022-08-12T08:37:10.822Z,5.82
2022-08-12T08:39:42.402Z,8.10
2022-08-12T08:42:27.640Z,2.80
2022-08-12T08:44:58.266Z,2.80
2022-08-12T08:47:26.308Z,7.27
2022-08-12T08:49:52.904Z,4.13
2022-08-12T08:52:40.526Z,4.47
2022-08-12T08:55:13.857Z,4.67
2022-08-12T08:57:43.875Z,4.60
2022-08-12T09:00:18.886Z,7.00
2022-08-12T09:02:59.309Z,14.17
2022-08-12T09:05:27.629Z,5.20
2022-08-12T09:08:09.025Z,4.40
2022-08-12T09:10:45.340Z,3.93
2022-08-12T09:14:12.045Z,8.13
2022-08-12T09:19:05.596Z,7.83
2022-08-12T09:24:20.319Z,7.13
2022-08-12T09:26:48.951Z,7.28
2022-08-12T09:29:20.354Z,4.90
2022-08-12T09:32:09.390Z,5.07
2022-08-12T09:34:42.170Z,6.43
2022-08-12T09:37:19.966Z,4.47
2022-08-12T09:40:02.587Z,5.83
2022-08-12T09:43:16.952Z,6.70
2022-08-12T09:46:06.280Z,11.63
2022-08-12T09:48:35.132Z,5.13
2022-08-12T09:51:04.370Z,7.83
2022-08-12T09:53:38.413Z,3.87
2022-08-12T09:56:58.633Z,6.00
2022-08-12T09:59:00.455Z,10.77
2022-08-12T10:01:35.354Z,6.40
2022-08-12T10:04:19.923Z,8.57
2022-08-12T10:06:54.857Z,4.00
2022-08-12T10:09:28.684Z,4.53
2022-08-12T10:12:31.463Z,6.27
2022-08-12T10:15:00.182Z,4.33
2022-08-12T10:17:27.469Z,5.33
2022-08-12T10:19:53.962Z,3.97
2022-08-12T10:22:40.521Z,7.20
2022-08-12T10:26:36.102Z,4.03
2022-08-12T10:28:36.480Z,7.23
2022-08-12T10:31:05.583Z,6.77
2022-08-12T10:33:34.165Z,6.53
2022-08-12T10:36:20.730Z,9.97
2022-08-12T10:39:03.590Z,12.37
2022-08-12T10:42:08.977Z,5.60
2022-08-12T10:44:37.225Z,7.77
2022-08-12T10:47:25.951Z,7.83
2022-08-12T10:50:02.219Z,6.63
2022-08-12T10:52:39.209Z,9.47
2022-08-12T10:55:13.466Z,11.50
2022-08-12T10:58:12.812Z,8.97
2022-08-12T11:00:36.015Z,5.60
2022-08-12T11:04:31.669Z,12.47
2022-08-12T11:07:10.017Z,6.00
2022-08-12T11:08:48.311Z,8.27
2022-08-12T11:11:27.721Z,8.30
2022-08-12T11:14:06.819Z,9.13
2022-08-12T11:17:03.805Z,8.97
2022-08-12T11:19:45.292Z,8.47
2022-08-12T11:22:12.750Z,8.03
2022-08-12T11:24:40.908Z,8.93
2022-08-12T11:27:18.056Z,10.43
2022-08-12T11:30:01.978Z,8.30
2022-08-12T11:32:31.387Z,7.10
2022-08-12T11:35:06.335Z,9.23
2022-08-12T11:37:57.764Z,9.47
2022-08-12T11:40:21.041Z,6.57
2022-08-12T11:42:48.393Z,8.50
2022-08-12T11:45:16.304Z,6.53
2022-08-12T11:47:43.858Z,9.93
2022-08-12T11:50:11.780Z,9.73
2022-08-12T11:52:56.382Z,14.97
2022-08-12T11:55:25.136Z,7.73
2022-08-12T11:58:14.566Z,7.63
2022-08-12T12:03:43.655Z,12.90
2022-08-12T12:06:15.421Z,10.50
2022-08-12T12:08:49.752Z,8.93
2022-08-12T12:11:18.488Z,8.63
2022-08-12T12:14:06.604Z,10.10
2022-08-12T12:16:33.658Z,9.47
2022-08-12T12:19:10.420Z,7.90
2022-08-12T12:21:47.202Z,10.03
2022-08-12T12:24:21.511Z,7.97
2022-08-12T12:26:59.808Z,9.43
2022-08-12T12:30:19.198Z,8.77
2022-08-12T12:32:18.485Z,8.67
2022-08-12T12:36:05.471Z,9.70
2022-08-12T12:37:59.086Z,8.87
2022-08-12T12:40:20.096Z,8.83
2022-08-12T12:42:56.021Z,7.00
2022-08-12T12:45:27.257Z,8.83
2022-08-12T12:48:02.081Z,10.43
2022-08-12T12:50:35.007Z,10.40
2022-08-12T12:53:03.410Z,8.10
2022-08-12T12:55:35.612Z,8.53
2022-08-12T12:58:04.753Z,10.77
2022-08-12T13:00:33.282Z,12.00
2022-08-12T13:03:00.232Z,9.57
2022-08-12T13:05:29.933Z,9.30
2022-08-12T13:08:28.067Z,7.93
2022-08-12T13:11:04.173Z,9.93
2022-08-12T13:14:09.180Z,7.97
2022-08-12T13:16:26.735Z,8.65
2022-08-12T13:18:54.003Z,6.05
2022-08-12T13:21:33.287Z,6.75
2022-08-12T13:24:09.928Z,8.18
2022-08-12T13:26:40.236Z,11.13
2022-08-12T13:29:11.208Z,10.45
2022-08-12T13:31:46.367Z,17.33
2022-08-12T13:34:33.550Z,21.93
2022-08-12T13:37:09.082Z,26.87
2022-08-12T13:39:37.927Z,22.93
2022-08-12T13:42:14.422Z,17.83
2022-08-12T13:44:42.081Z,17.23
2022-08-12T13:47:18.353Z,14.30
2022-08-12T13:49:55.017Z,15.67
2022-08-12T13:52:23.511Z,16.90
2022-08-12T13:54:55.843Z,14.57
2022-08-12T13:57:23.302Z,22.33
2022-08-12T13:59:55.661Z,15.07
2022-08-12T14:02:27.067Z,16.77
2022-08-12T14:04:56.591Z,19.00
2022-08-12T14:07:26.045Z,16.97
2022-08-12T14:10:11.624Z,18.10
2022-08-12T14:12:40.180Z,20.67
2022-08-12T14:15:21.663Z,21.30
2022-08-12T14:18:23.404Z,19.67
2022-08-12T14:20:58.523Z,21.23
2022-08-12T14:24:05.442Z,22.60
2022-08-12T14:26:19.975Z,25.83
2022-08-12T14:28:57.520Z,28.80
2022-08-12T14:31:31.788Z,23.13
2022-08-12T14:33:59.847Z,20.83
2022-08-12T14:36:26.865Z,18.60
2022-08-12T14:38:55.051Z,19.70
2022-08-12T14:41:24.017Z,21.97
2022-08-12T14:44:56.830Z,23.90
2022-08-12T14:46:57.798Z,22.43
2022-08-12T14:50:01.233Z,17.67
2022-08-12T14:52:55.729Z,16.00
2022-08-12T14:57:56.525Z,23.83
2022-08-12T15:00:57.973Z,17.93
2022-08-12T15:03:52.650Z,15.77
2022-08-12T15:06:44.368Z,17.53
2022-08-12T15:09:06.346Z,19.70
2022-08-12T15:11:55.192Z,13.83
2022-08-12T15:14:27.518Z,19.13
2022-08-12T15:16:56.724Z,16.77
2022-08-12T15:20:07.547Z,13.03
2022-08-12T15:22:38.483Z,14.50
2022-08-12T15:25:07.839Z,15.37
2022-08-12T15:28:05.537Z,14.07
2022-08-12T15:30:30.795Z,16.10
2022-08-12T15:32:57.630Z,16.57
2022-08-12T15:35:27.549Z,14.57
2022-08-12T15:38:09.953Z,16.93
2022-08-12T15:40:46.621Z,24.20
2022-08-12T15:43:52.092Z,16.13
2022-08-12T15:46:04.770Z,14.33
2022-08-12T15:48:34.853Z,15.10
2022-08-12T15:51:03.138Z,13.70
2022-08-12T15:53:54.725Z,10.53
2022-08-12T15:56:29.130Z,18.70
2022-08-12T15:58:59.214Z,16.40
2022-08-12T16:01:35.426Z,14.80
2022-08-12T16:04:02.777Z,16.73
2022-08-12T16:07:02.312Z,16.00
2022-08-12T16:09:56.302Z,12.03
2022-08-12T16:12:12.032Z,12.33
2022-08-12T16:14:42.356Z,14.07
2022-08-12T16:17:14.881Z,14.73
2022-08-12T16:20:04.991Z,15.23
2022-08-12T16:22:29.769Z,16.10
2022-08-12T16:24:56.711Z,10.70
2022-08-12T16:27:26.141Z,9.30
2022-08-12T16:29:57.464Z,12.73
2022-08-12T16:32:31.929Z,11.77
2022-08-12T16:35:01.554Z,16.17
2022-08-12T16:38:27.859Z,18.53
2022-08-12T16:40:22.039Z,18.80
2022-08-12T16:42:54.022Z,18.93
2022-08-12T16:45:32.334Z,23.73
2022-08-12T16:48:34.038Z,22.20
2022-08-12T16:51:09.805Z,22.37
2022-08-12T16:53:44.605Z,20.63
2022-08-12T16:56:17.436Z,18.17
2022-08-12T16:58:44.874Z,25.40
2022-08-12T17:01:16.697Z,23.83
2022-08-12T17:04:08.236Z,27.37
2022-08-12T17:06:36.637Z,29.47
2022-08-12T17:09:08.616Z,29.50
2022-08-12T17:11:43.934Z,32.83
2022-08-12T17:14:10.449Z,32.27
2022-08-12T17:16:40.441Z,28.03
2022-08-12T17:19:09.117Z,27.07
2022-08-12T17:21:41.091Z,27.60
2022-08-12T17:24:21.384Z,24.83
2022-08-12T17:26:50.460Z,21.67
2022-08-12T17:29:32.185Z,23.00
2022-08-12T17:32:11.304Z,24.83
2022-08-12T17:34:56.998Z,23.57
2022-08-12T17:37:23.597Z,25.20
2022-08-12T17:40:12.070Z,31.93
2022-08-12T17:42:38.528Z,26.37
2022-08-12T17:45:17.208Z,25.37
2022-08-12T17:48:01.668Z,29.07
2022-08-12T17:50:38.109Z,27.77
2022-08-12T17:53:07.764Z,29.70
2022-08-12T17:55:40.140Z,29.30
2022-08-12T17:58:12.996Z,39.60
2022-08-12T18:00:44.143Z,27.47
2022-08-12T18:04:04.476Z,30.13
2022-08-12T18:06:08.413Z,28.13
2022-08-12T18:08:41.307Z,30.90
2022-08-12T18:12:04.382Z,26.87
2022-08-12T18:14:22.496Z,26.10
2022-08-12T18:16:55.245Z,26.23
2022-08-12T18:19:21.855Z,30.47
2022-08-12T18:22:02.213Z,26.83
2022-08-12T18:24:30.041Z,24.60
2022-08-12T18:26:56.728Z,28.23
2022-08-12T18:29:24.045Z,25.57
2022-08-12T18:32:06.007Z,22.80
2022-08-12T18:34:52.712Z,24.60
2022-08-12T18:37:42.043Z,25.50
2022-08-12T18:40:26.737Z,23.47
2022-08-12T18:42:54.690Z,27.20
2022-08-12T18:45:31.348Z,23.97
2022-08-12T18:48:13.605Z,23.40
2022-08-12T18:50:49.604Z,22.90
2022-08-12T18:53:16.777Z,25.00
2022-08-12T18:56:04.925Z,20.87
2022-08-12T18:58:37.873Z,23.50
2022-08-12T19:01:06.459Z,20.03
2022-08-12T19:03:39.056Z,22.07
2022-08-12T19:06:06.987Z,20.03
2022-08-12T19:08:36.788Z,22.37
2022-08-12T19:11:24.521Z,22.87
2022-08-12T19:14:12.081Z,28.27
2022-08-12T19:16:41.374Z,20.87
2022-08-12T19:19:10.522Z,22.87
2022-08-12T19:21:38.629Z,25.83
2022-08-12T19:24:25.711Z,21.40
2022-08-12T19:26:57.109Z,23.07
2022-08-12T19:29:24.314Z,23.67
2022-08-12T19:31:57.999Z,25.70
2022-08-12T19:37:38.573Z,23.00
2022-08-12T19:40:31.232Z,23.00
2022-08-12T19:43:02.182Z,25.23
2022-08-12T19:45:48.710Z,23.13
2022-08-12T19:48:20.522Z,21.27
2022-08-12T19:50:50.521Z,21.87
2022-08-12T19:53:24.175Z,25.67
2022-08-12T19:55:55.702Z,21.17
2022-08-12T19:58:23.176Z,20.63
2022-08-12T20:00:53.457Z,29.30
2022-08-12T20:03:39.492Z,20.60
2022-08-12T20:06:14.068Z,21.90
2022-08-12T20:08:48.880Z,28.63
2022-08-12T20:12:11.142Z,23.80
2022-08-12T20:14:17.677Z,25.67
2022-08-12T20:16:52.504Z,24.53
2022-08-12T20:19:52.863Z,22.50
2022-08-12T20:22:24.603Z,22.30
2022-08-12T20:25:01.515Z,23.47
2022-08-12T20:28:03.317Z,24.40
2022-08-12T20:30:20.208Z,22.20
2022-08-12T20:32:58.356Z,21.70
2022-08-12T20:36:06.013Z,25.30
2022-08-12T20:38:27.205Z,24.43
2022-08-12T20:40:54.556Z,26.53
2022-08-12T20:43:23.969Z,31.03
2022-08-12T20:45:58.135Z,24.30
2022-08-12T20:48:29.300Z,24.87
2022-08-12T20:50:57.609Z,26.30
2022-08-12T20:53:33.270Z,24.93
2022-08-12T20:56:22.108Z,28.20
2022-08-12T20:59:00.060Z,27.00
2022-08-12T21:01:29.159Z,27.93
2022-08-12T21:04:33.265Z,29.93
2022-08-12T21:07:09.734Z,28.77
2022-08-12T21:09:45.532Z,30.83
2022-08-12T21:12:27.632Z,26.90
2022-08-12T21:15:06.254Z,25.53
2022-08-12T21:18:09.238Z,25.77
2022-08-12T21:20:35.946Z,26.13
2022-08-12T21:23:05.718Z,28.87
2022-08-12T21:25:35.827Z,25.17
2022-08-12T21:28:05.879Z,24.70
2022-08-12T21:30:37.608Z,27.67
2022-08-12T21:33:04.729Z,25.27
2022-08-12T21:35:40.097Z,27.27
2022-08-12T21:38:08.199Z,22.77
2022-08-12T21:40:37.707Z,28.13
2022-08-12T21:43:19.704Z,26.50
2022-08-12T21:46:00.896Z,25.33
2022-08-12T21:48:28.214Z,22.30
2022-08-12T21:50:56.110Z,25.80
2022-08-12T21:53:22.949Z,31.67
2022-08-12T21:56:09.929Z,27.27
2022-08-12T21:58:56.541Z,26.80
2022-08-12T22:01:24.227Z,33.53
2022-08-12T22:04:12.466Z,23.50
2022-08-12T22:06:43.268Z,26.70
2022-08-12T22:09:17.225Z,18.33
2022-08-12T22:11:49.110Z,18.73
2022-08-12T22:14:24.098Z,19.10
2022-08-12T22:16:53.519Z,16.77
2022-08-12T22:19:20.969Z,19.47
2022-08-12T22:21:54.377Z,20.13
2022-08-12T22:24:27.032Z,20.00
2022-08-12T22:27:17.869Z,15.60
2022-08-12T22:30:16.458Z,20.93
2022-08-12T22:32:51.509Z,19.67
2022-08-12T22:35:55.764Z,20.73
2022-08-12T22:38:25.470Z,19.57
2022-08-12T22:41:01.696Z,16.63
2022-08-12T22:44:00.406Z,20.63
2022-08-12T22:46:52.761Z,18.43
2022-08-12T22:49:36.933Z,22.73
2022-08-12T22:52:13.853Z,22.13
2022-08-12T22:54:59.936Z,21.93
2022-08-12T22:57:48.952Z,21.00
2022-08-12T23:00:24.204Z,19.33
2022-08-12T23:02:58.448Z,22.47
2022-08-12T23:05:57.547Z,23.50
2022-08-12T23:08:17.828Z,24.47
2022-08-12T23:10:45.032Z,24.17
2022-08-12T23:13:30.169Z,28.83
2022-08-12T23:16:28.179Z,22.57
2022-08-12T23:18:59.057Z,22.93
2022-08-12T23:22:03.983Z,28.03
2022-08-12T23:24:17.084Z,26.50
2022-08-12T23:27:03.844Z,27.47
2022-08-12T23:29:43.245Z,26.87
2022-08-12T23:32:35.232Z,22.40
2022-08-12T23:35:03.638Z,28.67
2022-08-12T23:37:46.376Z,27.53
2022-08-12T23:40:18.173Z,26.40
2022-08-12T23:42:46.589Z,23.70
2022-08-12T23:45:20.328Z,22.73
2022-08-12T23:47:58.399Z,20.60
2022-08-12T23:50:33.794Z,23.60
2022-08-12T23:53:05.678Z,29.13
2022-08-12T23:55:40.481Z,28.23
2022-08-12T23:58:21.540Z,27.70
